sensor_id;sensor_type;location;lat;lon;timestamp;P1;durP1;ratioP1;P2;durP2;ratioP2
58196;SDS011;43999;51.660;5.616;2022-07-10T14:51:29;2.85;;;1.73;;
58196;SDS011;43999;51.660;5.616;2022-07-10T14:54:01;4.40;;;1.58;;
58196;SDS011;43999;51.660;5.616;2022-07-10T14:56:29;4.93;;;2.03;;
58196;SDS011;43999;51.660;5.616;2022-07-10T14:58:56;2.65;;;1.95;;
58196;SDS011;43999;51.660;5.616;2022-07-10T15:01:40;4.97;;;2.70;;
58196;SDS011;43999;51.660;5.616;2022-07-10T15:04:08;3.67;;;2.30;;
58196;SDS011;43999;51.660;5.616;2022-07-10T15:06:35;5.13;;;1.80;;
58196;SDS011;43999;51.660;5.616;2022-07-10T15:09:02;4.30;;;1.92;;
58196;SDS011;43999;51.660;5.616;2022-07-10T15:11:30;2.95;;;1.92;;
58196;SDS011;43999;51.660;5.616;2022-07-10T15:13:59;5.10;;;2.03;;
58196;SDS011;43999;51.660;5.616;2022-07-10T15:16:26;3.10;;;1.77;;
58196;SDS011;43999;51.660;5.616;2022-07-10T15:18:55;7.38;;;2.42;;
58196;SDS011;43999;51.660;5.616;2022-07-10T15:21:23;4.80;;;2.42;;
58196;SDS011;43999;51.660;5.616;2022-07-10T15:23:50;3.28;;;1.88;;
58196;SDS011;43999;51.660;5.616;2022-07-10T15:26:18;4.22;;;1.90;;
58196;SDS011;43999;51.660;5.616;2022-07-10T15:28:45;4.47;;;2.45;;
58196;SDS011;43999;51.660;5.616;2022-07-10T15:31:13;5.07;;;2.05;;
58196;SDS011;43999;51.660;5.616;2022-07-10T15:33:42;3.10;;;2.08;;
58196;SDS011;43999;51.660;5.616;2022-07-10T15:36:12;4.30;;;3.13;;
58196;SDS011;43999;51.660;5.616;2022-07-10T15:38:40;3.47;;;2.20;;
58196;SDS011;43999;51.660;5.616;2022-07-10T15:41:07;4.18;;;1.90;;
58196;SDS011;43999;51.660;5.616;2022-07-10T15:43:35;4.85;;;2.10;;
58196;SDS011;43999;51.660;5.616;2022-07-10T15:46:03;4.40;;;1.95;;
58196;SDS011;43999;51.660;5.616;2022-07-10T15:48:32;4.10;;;2.47;;
58196;SDS011;43999;51.660;5.616;2022-07-10T15:50:59;5.03;;;2.38;;
58196;SDS011;43999;51.660;5.616;2022-07-10T15:53:26;2.55;;;1.75;;
58196;SDS011;43999;51.660;5.616;2022-07-10T15:55:54;4.10;;;2.10;;
58196;SDS011;43999;51.660;5.616;2022-07-10T15:58:21;4.95;;;2.72;;
58196;SDS011;43999;51.660;5.616;2022-07-10T16:00:48;4.60;;;3.03;;
58196;SDS011;43999;51.660;5.616;2022-07-10T16:03:15;3.88;;;2.20;;
58196;SDS011;43999;51.660;5.616;2022-07-10T16:05:43;4.60;;;2.58;;
58196;SDS011;43999;51.660;5.616;2022-07-10T16:08:10;4.90;;;2.65;;
58196;SDS011;43999;51.660;5.616;2022-07-10T16:10:38;3.40;;;2.05;;
58196;SDS011;43999;51.660;5.616;2022-07-10T16:13:05;4.07;;;2.67;;
58196;SDS011;43999;51.660;5.616;2022-07-10T16:15:33;4.15;;;2.30;;
58196;SDS011;43999;51.660;5.616;2022-07-10T16:18:00;4.95;;;2.53;;
58196;SDS011;43999;51.660;5.616;2022-07-10T16:20:27;3.92;;;2.17;;
58196;SDS011;43999;51.660;5.616;2022-07-10T16:22:55;3.95;;;2.50;;
58196;SDS011;43999;51.660;5.616;2022-07-10T16:25:23;4.70;;;2.42;;
58196;SDS011;43999;51.660;5.616;2022-07-10T16:28:09;3.85;;;2.22;;
58196;SDS011;43999;51.660;5.616;2022-07-10T16:30:36;7.15;;;2.42;;
58196;SDS011;43999;51.660;5.616;2022-07-10T16:33:03;4.38;;;2.50;;
58196;SDS011;43999;51.660;5.616;2022-07-10T16:35:31;2.60;;;2.03;;
58196;SDS011;43999;51.660;5.616;2022-07-10T16:37:58;4.97;;;2.75;;
58196;SDS011;43999;51.660;5.616;2022-07-10T16:40:25;7.25;;;2.42;;
58196;SDS011;43999;51.660;5.616;2022-07-10T16:42:53;6.25;;;2.67;;
58196;SDS011;43999;51.660;5.616;2022-07-10T16:45:20;5.55;;;2.88;;
58196;SDS011;43999;51.660;5.616;2022-07-10T16:47:47;6.57;;;3.13;;
58196;SDS011;43999;51.660;5.616;2022-07-10T16:50:15;5.60;;;2.83;;
58196;SDS011;43999;51.660;5.616;2022-07-10T16:52:42;4.53;;;3.10;;
58196;SDS011;43999;51.660;5.616;2022-07-10T16:55:10;4.05;;;2.92;;
58196;SDS011;43999;51.660;5.616;2022-07-10T16:57:37;3.92;;;3.15;;
58196;SDS011;43999;51.660;5.616;2022-07-10T17:00:05;6.20;;;3.20;;
58196;SDS011;43999;51.660;5.616;2022-07-10T17:02:34;7.57;;;3.42;;
58196;SDS011;43999;51.660;5.616;2022-07-10T17:05:02;4.22;;;3.53;;
58196;SDS011;43999;51.660;5.616;2022-07-10T17:07:31;5.13;;;3.00;;
58196;SDS011;43999;51.660;5.616;2022-07-10T17:09:58;3.58;;;2.47;;
58196;SDS011;43999;51.660;5.616;2022-07-10T17:12:25;6.03;;;3.33;;
58196;SDS011;43999;51.660;5.616;2022-07-10T17:14:53;5.75;;;2.60;;
58196;SDS011;43999;51.660;5.616;2022-07-10T17:17:20;5.32;;;3.63;;
58196;SDS011;43999;51.660;5.616;2022-07-10T17:19:47;5.53;;;2.67;;
58196;SDS011;43999;51.660;5.616;2022-07-10T17:22:17;7.10;;;2.85;;
58196;SDS011;43999;51.660;5.616;2022-07-10T17:24:46;5.60;;;3.40;;
58196;SDS011;43999;51.660;5.616;2022-07-10T17:27:13;4.22;;;3.13;;
58196;SDS011;43999;51.660;5.616;2022-07-10T17:29:42;3.60;;;2.50;;
58196;SDS011;43999;51.660;5.616;2022-07-10T17:32:11;5.32;;;2.83;;
58196;SDS011;43999;51.660;5.616;2022-07-10T17:34:38;4.82;;;2.75;;
58196;SDS011;43999;51.660;5.616;2022-07-10T17:37:06;4.45;;;3.47;;
58196;SDS011;43999;51.660;5.616;2022-07-10T17:39:33;6.40;;;3.33;;
58196;SDS011;43999;51.660;5.616;2022-07-10T17:42:01;5.03;;;3.08;;
58196;SDS011;43999;51.660;5.616;2022-07-10T17:44:29;7.15;;;3.38;;
58196;SDS011;43999;51.660;5.616;2022-07-10T17:46:56;3.90;;;2.60;;
58196;SDS011;43999;51.660;5.616;2022-07-10T17:49:24;3.72;;;3.42;;
58196;SDS011;43999;51.660;5.616;2022-07-10T17:51:58;4.72;;;2.88;;
58196;SDS011;43999;51.660;5.616;2022-07-10T17:54:27;4.20;;;2.70;;
58196;SDS011;43999;51.660;5.616;2022-07-10T17:56:55;6.32;;;3.17;;
58196;SDS011;43999;51.660;5.616;2022-07-10T17:59:22;4.82;;;3.28;;
58196;SDS011;43999;51.660;5.616;2022-07-10T18:01:49;4.13;;;3.10;;
58196;SDS011;43999;51.660;5.616;2022-07-10T18:04:17;4.30;;;3.65;;
58196;SDS011;43999;51.660;5.616;2022-07-10T18:06:44;4.85;;;2.80;;
58196;SDS011;43999;51.660;5.616;2022-07-10T18:09:11;6.95;;;3.17;;
58196;SDS011;43999;51.660;5.616;2022-07-10T18:11:42;5.75;;;2.72;;
58196;SDS011;43999;51.660;5.616;2022-07-10T18:14:11;3.97;;;3.20;;
58196;SDS011;43999;51.660;5.616;2022-07-10T18:16:39;7.28;;;4.13;;
58196;SDS011;43999;51.660;5.616;2022-07-10T18:19:09;4.68;;;2.80;;
58196;SDS011;43999;51.660;5.616;2022-07-10T18:21:36;5.25;;;3.25;;
58196;SDS011;43999;51.660;5.616;2022-07-10T18:24:05;4.07;;;3.20;;
58196;SDS011;43999;51.660;5.616;2022-07-10T18:26:34;5.13;;;2.90;;
58196;SDS011;43999;51.660;5.616;2022-07-10T18:29:01;5.05;;;3.10;;
58196;SDS011;43999;51.660;5.616;2022-07-10T18:31:29;4.88;;;3.00;;
58196;SDS011;43999;51.660;5.616;2022-07-10T18:33:56;6.63;;;3.50;;
58196;SDS011;43999;51.660;5.616;2022-07-10T18:36:42;4.70;;;3.17;;
58196;SDS011;43999;51.660;5.616;2022-07-10T18:39:09;4.47;;;3.22;;
58196;SDS011;43999;51.660;5.616;2022-07-10T18:41:43;4.72;;;3.17;;
58196;SDS011;43999;51.660;5.616;2022-07-10T18:44:12;6.60;;;2.95;;
58196;SDS011;43999;51.660;5.616;2022-07-10T18:46:40;3.45;;;2.90;;
58196;SDS011;43999;51.660;5.616;2022-07-10T18:49:07;5.95;;;3.85;;
58196;SDS011;43999;51.660;5.616;2022-07-10T18:51:35;4.05;;;3.33;;
58196;SDS011;43999;51.660;5.616;2022-07-10T18:54:02;5.47;;;3.00;;
58196;SDS011;43999;51.660;5.616;2022-07-10T18:56:30;6.65;;;3.50;;
58196;SDS011;43999;51.660;5.616;2022-07-10T18:58:57;3.78;;;2.90;;
58196;SDS011;43999;51.660;5.616;2022-07-10T19:01:25;7.10;;;3.75;;
58196;SDS011;43999;51.660;5.616;2022-07-10T19:03:55;4.07;;;2.80;;
58196;SDS011;43999;51.660;5.616;2022-07-10T19:06:22;5.78;;;3.33;;
58196;SDS011;43999;51.660;5.616;2022-07-10T19:08:50;6.88;;;3.45;;
58196;SDS011;43999;51.660;5.616;2022-07-10T19:11:17;5.28;;;3.13;;
58196;SDS011;43999;51.660;5.616;2022-07-10T19:13:45;6.07;;;3.80;;
58196;SDS011;43999;51.660;5.616;2022-07-10T19:16:12;8.43;;;4.15;;
58196;SDS011;43999;51.660;5.616;2022-07-10T19:18:39;5.25;;;4.20;;
58196;SDS011;43999;51.660;5.616;2022-07-10T19:21:08;6.35;;;3.97;;
58196;SDS011;43999;51.660;5.616;2022-07-10T19:23:42;4.60;;;3.78;;
58196;SDS011;43999;51.660;5.616;2022-07-10T19:26:11;4.93;;;4.45;;
58196;SDS011;43999;51.660;5.616;2022-07-10T19:28:41;6.00;;;3.75;;
58196;SDS011;43999;51.660;5.616;2022-07-10T19:31:10;5.93;;;3.67;;
58196;SDS011;43999;51.660;5.616;2022-07-10T19:33:39;6.25;;;3.65;;
58196;SDS011;43999;51.660;5.616;2022-07-10T19:36:08;5.30;;;3.42;;
58196;SDS011;43999;51.660;5.616;2022-07-10T19:38:35;4.72;;;3.58;;
58196;SDS011;43999;51.660;5.616;2022-07-10T19:41:03;8.30;;;3.70;;
58196;SDS011;43999;51.660;5.616;2022-07-10T19:43:35;4.28;;;3.03;;
58196;SDS011;43999;51.660;5.616;2022-07-10T19:46:03;5.35;;;3.80;;
58196;SDS011;43999;51.660;5.616;2022-07-10T19:48:32;9.60;;;4.80;;
58196;SDS011;43999;51.660;5.616;2022-07-10T19:51:05;6.03;;;4.40;;
58196;SDS011;43999;51.660;5.616;2022-07-10T19:53:34;10.32;;;4.57;;
58196;SDS011;43999;51.660;5.616;2022-07-10T19:56:02;8.70;;;4.93;;
58196;SDS011;43999;51.660;5.616;2022-07-10T19:58:30;5.32;;;4.55;;
58196;SDS011;43999;51.660;5.616;2022-07-10T20:00:58;6.80;;;5.40;;
58196;SDS011;43999;51.660;5.616;2022-07-10T20:03:26;6.03;;;4.63;;
58196;SDS011;43999;51.660;5.616;2022-07-10T20:05:54;8.70;;;5.55;;
58196;SDS011;43999;51.660;5.616;2022-07-10T20:08:21;7.60;;;4.88;;
58196;SDS011;43999;51.660;5.616;2022-07-10T20:10:53;7.38;;;4.63;;
58196;SDS011;43999;51.660;5.616;2022-07-10T20:13:21;9.65;;;4.30;;
58196;SDS011;43999;51.660;5.616;2022-07-10T20:15:48;6.85;;;4.63;;
58196;SDS011;43999;51.660;5.616;2022-07-10T20:18:34;5.18;;;4.35;;
58196;SDS011;43999;51.660;5.616;2022-07-10T20:21:02;5.53;;;4.55;;
58196;SDS011;43999;51.660;5.616;2022-07-10T20:23:30;6.30;;;4.68;;
58196;SDS011;43999;51.660;5.616;2022-07-10T20:25:59;4.38;;;3.70;;
58196;SDS011;43999;51.660;5.616;2022-07-10T20:28:26;6.13;;;4.30;;
58196;SDS011;43999;51.660;5.616;2022-07-10T20:30:53;4.85;;;4.45;;
58196;SDS011;43999;51.660;5.616;2022-07-10T20:33:25;4.95;;;3.85;;
58196;SDS011;43999;51.660;5.616;2022-07-10T20:35:53;6.35;;;4.25;;
58196;SDS011;43999;51.660;5.616;2022-07-10T20:38:39;7.47;;;4.07;;
58196;SDS011;43999;51.660;5.616;2022-07-10T20:41:08;6.35;;;4.75;;
58196;SDS011;43999;51.660;5.616;2022-07-10T20:43:37;10.10;;;4.68;;
58196;SDS011;43999;51.660;5.616;2022-07-10T20:46:05;5.50;;;4.88;;
58196;SDS011;43999;51.660;5.616;2022-07-10T20:48:32;7.05;;;5.45;;
58196;SDS011;43999;51.660;5.616;2022-07-10T20:50:59;5.18;;;4.60;;
58196;SDS011;43999;51.660;5.616;2022-07-10T20:53:27;7.60;;;4.22;;
58196;SDS011;43999;51.660;5.616;2022-07-10T20:55:54;5.63;;;4.10;;
58196;SDS011;43999;51.660;5.616;2022-07-10T20:58:21;7.65;;;4.80;;
58196;SDS011;43999;51.660;5.616;2022-07-10T21:00:49;8.02;;;5.68;;
58196;SDS011;43999;51.660;5.616;2022-07-10T21:03:16;10.25;;;7.28;;
58196;SDS011;43999;51.660;5.616;2022-07-10T21:05:44;8.65;;;6.30;;
58196;SDS011;43999;51.660;5.616;2022-07-10T21:08:11;8.82;;;6.85;;
58196;SDS011;43999;51.660;5.616;2022-07-10T21:10:38;9.93;;;7.03;;
58196;SDS011;43999;51.660;5.616;2022-07-10T21:13:16;7.20;;;5.75;;
58196;SDS011;43999;51.660;5.616;2022-07-10T21:15:47;8.77;;;6.63;;
58196;SDS011;43999;51.660;5.616;2022-07-10T21:18:16;8.10;;;6.57;;
58196;SDS011;43999;51.660;5.616;2022-07-10T21:20:44;7.75;;;6.13;;
58196;SDS011;43999;51.660;5.616;2022-07-10T21:23:12;7.82;;;6.63;;
58196;SDS011;43999;51.660;5.616;2022-07-10T21:25:39;8.00;;;7.30;;
58196;SDS011;43999;51.660;5.616;2022-07-10T21:28:07;8.30;;;7.10;;
58196;SDS011;43999;51.660;5.616;2022-07-10T21:30:34;10.32;;;8.18;;
58196;SDS011;43999;51.660;5.616;2022-07-10T21:33:01;10.30;;;8.27;;
58196;SDS011;43999;51.660;5.616;2022-07-10T21:35:29;8.65;;;7.70;;
58196;SDS011;43999;51.660;5.616;2022-07-10T21:37:56;8.27;;;6.97;;
58196;SDS011;43999;51.660;5.616;2022-07-10T21:40:25;9.70;;;7.50;;
58196;SDS011;43999;51.660;5.616;2022-07-10T21:42:53;8.85;;;7.90;;
58196;SDS011;43999;51.660;5.616;2022-07-10T21:45:21;10.75;;;8.20;;
58196;SDS011;43999;51.660;5.616;2022-07-10T21:47:48;9.45;;;7.50;;
58196;SDS011;43999;51.660;5.616;2022-07-10T21:50:16;10.32;;;6.57;;
58196;SDS011;43999;51.660;5.616;2022-07-10T21:52:43;16.80;;;7.57;;
58196;SDS011;43999;51.660;5.616;2022-07-10T21:55:10;10.23;;;7.35;;
58196;SDS011;43999;51.660;5.616;2022-07-10T21:57:37;13.88;;;9.25;;
58196;SDS011;43999;51.660;5.616;2022-07-10T22:00:06;9.32;;;7.93;;
58196;SDS011;43999;51.660;5.616;2022-07-10T22:02:39;8.85;;;6.70;;
58196;SDS011;43999;51.660;5.616;2022-07-10T22:05:07;10.40;;;8.75;;
58196;SDS011;43999;51.660;5.616;2022-07-10T22:07:35;10.77;;;8.90;;
58196;SDS011;43999;51.660;5.616;2022-07-10T22:10:02;10.07;;;8.02;;
58196;SDS011;43999;51.660;5.616;2022-07-10T22:12:31;9.90;;;8.40;;
58196;SDS011;43999;51.660;5.616;2022-07-10T22:14:59;8.60;;;7.53;;
58196;SDS011;43999;51.660;5.616;2022-07-10T22:17:26;10.07;;;8.88;;
58196;SDS011;43999;51.660;5.616;2022-07-10T22:19:53;10.65;;;9.25;;
58196;SDS011;43999;51.660;5.616;2022-07-10T22:22:20;10.57;;;9.27;;
58196;SDS011;43999;51.660;5.616;2022-07-10T22:24:48;10.88;;;8.90;;
58196;SDS011;43999;51.660;5.616;2022-07-10T22:27:15;9.55;;;8.63;;
58196;SDS011;43999;51.660;5.616;2022-07-10T22:29:42;10.27;;;9.10;;
58196;SDS011;43999;51.660;5.616;2022-07-10T22:32:11;11.52;;;9.00;;
58196;SDS011;43999;51.660;5.616;2022-07-10T22:34:38;11.48;;;10.27;;
58196;SDS011;43999;51.660;5.616;2022-07-10T22:37:05;10.35;;;9.20;;
58196;SDS011;43999;51.660;5.616;2022-07-10T22:39:33;14.70;;;9.85;;
58196;SDS011;43999;51.660;5.616;2022-07-10T22:42:00;11.57;;;9.15;;
58196;SDS011;43999;51.660;5.616;2022-07-10T22:44:27;12.15;;;10.90;;
58196;SDS011;43999;51.660;5.616;2022-07-10T22:46:55;12.38;;;9.90;;
58196;SDS011;43999;51.660;5.616;2022-07-10T22:49:22;13.23;;;11.38;;
58196;SDS011;43999;51.660;5.616;2022-07-10T22:51:49;12.23;;;9.70;;
58196;SDS011;43999;51.660;5.616;2022-07-10T22:54:17;9.48;;;7.70;;
58196;SDS011;43999;51.660;5.616;2022-07-10T22:56:44;13.65;;;11.15;;
58196;SDS011;43999;51.660;5.616;2022-07-10T22:59:11;9.65;;;7.85;;
58196;SDS011;43999;51.660;5.616;2022-07-10T23:01:41;12.60;;;10.48;;
58196;SDS011;43999;51.660;5.616;2022-07-10T23:04:15;11.50;;;10.38;;
58196;SDS011;43999;51.660;5.616;2022-07-10T23:06:43;12.65;;;9.23;;
58196;SDS011;43999;51.660;5.616;2022-07-10T23:09:10;11.38;;;10.18;;
58196;SDS011;43999;51.660;5.616;2022-07-10T23:11:37;10.32;;;8.82;;
58196;SDS011;43999;51.660;5.616;2022-07-10T23:14:06;12.52;;;9.82;;
58196;SDS011;43999;51.660;5.616;2022-07-10T23:16:33;14.15;;;12.65;;
58196;SDS011;43999;51.660;5.616;2022-07-10T23:19:01;10.80;;;8.50;;
58196;SDS011;43999;51.660;5.616;2022-07-10T23:21:28;14.52;;;11.57;;
58196;SDS011;43999;51.660;5.616;2022-07-10T23:23:56;15.88;;;11.80;;
58196;SDS011;43999;51.660;5.616;2022-07-10T23:26:23;14.02;;;10.95;;
58196;SDS011;43999;51.660;5.616;2022-07-10T23:28:51;12.95;;;10.13;;
58196;SDS011;43999;51.660;5.616;2022-07-10T23:31:18;16.15;;;13.43;;
58196;SDS011;43999;51.660;5.616;2022-07-10T23:33:45;11.27;;;10.23;;
58196;SDS011;43999;51.660;5.616;2022-07-10T23:36:13;13.77;;;11.25;;
58196;SDS011;43999;51.660;5.616;2022-07-10T23:38:40;16.23;;;11.68;;
58196;SDS011;43999;51.660;5.616;2022-07-10T23:41:07;14.30;;;12.23;;
58196;SDS011;43999;51.660;5.616;2022-07-10T23:43:34;14.75;;;12.90;;
58196;SDS011;43999;51.660;5.616;2022-07-10T23:46:02;12.82;;;11.52;;
58196;SDS011;43999;51.660;5.616;2022-07-10T23:48:29;18.70;;;12.32;;
58196;SDS011;43999;51.660;5.616;2022-07-10T23:51:15;17.17;;;12.13;;
58196;SDS011;43999;51.660;5.616;2022-07-10T23:53:42;19.13;;;12.75;;
58196;SDS011;43999;51.660;5.616;2022-07-10T23:56:10;15.45;;;13.80;;
58196;SDS011;43999;51.660;5.616;2022-07-10T23:58:37;13.32;;;11.90;;
